createdAt,value
2022-10-05T00:01:22.443Z,10.72
2022-10-05T00:03:49.082Z,10.69
2022-10-05T00:06:15.792Z,10.66
2022-10-05T00:08:43.611Z,10.64
2022-10-05T00:11:13.712Z,10.62
2022-10-05T00:13:40.992Z,10.60
2022-10-05T00:16:14.818Z,10.59
2022-10-05T00:18:42.595Z,10.56
2022-10-05T00:21:18.305Z,10.55
2022-10-05T00:23:46.388Z,10.53
2022-10-05T00:26:18.910Z,10.52
2022-10-05T00:28:45.337Z,10.50
2022-10-05T00:31:17.043Z,10.48
2022-10-05T00:33:43.510Z,10.47
2022-10-05T00:36:10.112Z,10.46
2022-10-05T00:38:36.764Z,10.43
2022-10-05T00:41:10.262Z,10.42
2022-10-05T00:43:54.423Z,10.40
2022-10-05T00:46:25.175Z,10.38
2022-10-05T00:49:02.586Z,10.37
2022-10-05T00:51:31.660Z,10.36
2022-10-05T00:54:18.354Z,10.35
2022-10-05T00:57:04.738Z,10.35
2022-10-05T00:59:43.665Z,10.35
2022-10-05T01:02:15.223Z,10.34
2022-10-05T01:04:48.148Z,10.35
2022-10-05T01:07:26.971Z,10.36
2022-10-05T01:10:00.477Z,10.35
2022-10-05T01:12:32.113Z,10.36
2022-10-05T01:15:05.286Z,10.38
2022-10-05T01:17:39.882Z,10.39
2022-10-05T01:20:16.902Z,10.40
2022-10-05T01:23:05.757Z,10.40
2022-10-05T01:25:41.121Z,10.39
2022-10-05T01:28:13.094Z,10.39
2022-10-05T01:30:47.583Z,10.39
2022-10-05T01:33:18.767Z,10.38
2022-10-05T01:35:55.993Z,10.36
2022-10-05T01:38:36.654Z,10.34
2022-10-05T01:41:13.575Z,10.34
2022-10-05T01:43:46.656Z,10.34
2022-10-05T01:46:24.485Z,10.33
2022-10-05T01:49:02.071Z,10.31
2022-10-05T01:51:37.789Z,10.29
2022-10-05T01:54:18.440Z,10.27
2022-10-05T01:56:53.204Z,10.23
2022-10-05T01:59:30.496Z,10.20
2022-10-05T02:02:01.138Z,10.18
2022-10-05T02:05:00.347Z,10.14
2022-10-05T02:07:23.747Z,10.12
2022-10-05T02:09:55.556Z,10.08
2022-10-05T02:12:26.285Z,10.07
2022-10-05T02:14:58.188Z,10.04
2022-10-05T02:17:31.680Z,10.02
2022-10-05T02:19:59.954Z,10.00
2022-10-05T02:22:30.960Z,9.98
2022-10-05T02:25:00.061Z,9.95
2022-10-05T02:27:31.302Z,9.93
2022-10-05T02:30:02.701Z,9.93
2022-10-05T02:32:37.068Z,9.91
2022-10-05T02:35:12.640Z,9.87
2022-10-05T02:37:47.906Z,9.86
2022-10-05T02:40:25.376Z,9.82
2022-10-05T02:43:00.324Z,9.81
2022-10-05T02:45:35.522Z,9.80
2022-10-05T02:48:11.163Z,9.78
2022-10-05T02:50:45.075Z,9.77
2022-10-05T02:53:21.082Z,9.76
2022-10-05T02:55:57.462Z,9.74
2022-10-05T02:58:27.660Z,9.73
2022-10-05T03:01:02.808Z,9.73
2022-10-05T03:03:35.459Z,9.74
2022-10-05T03:06:05.124Z,9.75
2022-10-05T03:08:40.543Z,9.74
2022-10-05T03:11:14.912Z,9.74
2022-10-05T03:13:48.299Z,9.75
2022-10-05T03:16:35.753Z,9.76
2022-10-05T03:19:16.015Z,9.76
2022-10-05T03:21:53.258Z,9.77
2022-10-05T03:24:40.027Z,9.78
2022-10-05T03:27:17.269Z,9.77
2022-10-05T03:29:50.712Z,9.79
2022-10-05T03:32:25.178Z,9.79
2022-10-05T03:34:56.818Z,9.81
2022-10-05T03:37:32.315Z,9.82
2022-10-05T03:40:06.177Z,9.85
2022-10-05T03:42:52.500Z,9.86
2022-10-05T03:45:25.669Z,9.88
2022-10-05T03:48:03.551Z,9.89
2022-10-05T03:50:44.494Z,9.91
2022-10-05T03:53:17.859Z,9.91
2022-10-05T03:55:49.792Z,9.94
2022-10-05T03:58:22.124Z,9.94
2022-10-05T04:00:53.549Z,9.94
2022-10-05T04:03:27.831Z,9.95
2022-10-05T04:05:57.948Z,9.97
2022-10-05T04:08:31.078Z,9.96
2022-10-05T04:11:03.394Z,9.96
2022-10-05T04:13:35.605Z,9.99
2022-10-05T04:16:08.639Z,10.00
2022-10-05T04:18:39.946Z,10.00
2022-10-05T04:21:11.355Z,10.01
2022-10-05T04:23:47.999Z,10.02
2022-10-05T04:26:18.520Z,10.02
2022-10-05T04:28:52.480Z,10.03
2022-10-05T04:31:33.298Z,10.04
2022-10-05T04:34:09.752Z,10.05
2022-10-05T04:36:45.662Z,10.06
2022-10-05T04:39:23.617Z,10.07
2022-10-05T04:42:00.027Z,10.07
2022-10-05T04:44:44.691Z,10.08
2022-10-05T04:47:27.292Z,10.09
2022-10-05T04:50:15.405Z,10.10
2022-10-05T04:52:52.284Z,10.11
2022-10-05T04:55:28.051Z,10.10
2022-10-05T04:58:05.559Z,10.11
2022-10-05T05:00:44.269Z,10.13
2022-10-05T05:03:31.243Z,10.14
2022-10-05T05:06:17.680Z,10.15
2022-10-05T05:09:03.766Z,10.18
2022-10-05T05:11:40.227Z,10.18
2022-10-05T05:14:50.428Z,10.20
2022-10-05T05:17:31.017Z,10.20
2022-10-05T05:20:07.963Z,10.21
2022-10-05T05:22:45.000Z,10.20
2022-10-05T05:25:30.707Z,10.21
2022-10-05T05:28:01.096Z,10.22
2022-10-05T05:30:37.131Z,10.22
2022-10-05T05:33:17.811Z,10.24
2022-10-05T05:36:08.714Z,10.24
2022-10-05T05:38:40.857Z,10.27
2022-10-05T05:41:10.218Z,10.27
2022-10-05T05:43:51.724Z,10.30
2022-10-05T05:46:38.780Z,10.32
2022-10-05T05:49:17.841Z,10.33
2022-10-05T05:51:50.185Z,10.36
2022-10-05T05:54:31.299Z,10.37
2022-10-05T05:57:06.407Z,10.39
2022-10-05T05:59:45.388Z,10.43
2022-10-05T06:02:16.626Z,10.46
2022-10-05T06:04:48.346Z,10.51
2022-10-05T06:07:18.861Z,10.53
2022-10-05T06:09:52.048Z,10.57
2022-10-05T06:12:22.481Z,10.62
2022-10-05T06:14:52.858Z,10.67
2022-10-05T06:17:26.264Z,10.72
2022-10-05T06:19:55.623Z,10.77
2022-10-05T06:22:32.498Z,10.84
2022-10-05T06:25:16.758Z,10.92
2022-10-05T06:28:00.100Z,11.00
2022-10-05T06:30:33.442Z,11.06
2022-10-05T06:33:12.004Z,11.15
2022-10-05T06:35:53.310Z,11.21
2022-10-05T06:38:49.363Z,11.30
2022-10-05T06:41:24.096Z,11.39
2022-10-05T06:43:58.369Z,11.45
2022-10-05T06:46:29.660Z,11.53
2022-10-05T06:49:10.953Z,11.61
2022-10-05T06:51:47.997Z,11.67
2022-10-05T06:54:26.787Z,11.74
2022-10-05T06:57:01.986Z,11.79
2022-10-05T06:59:35.534Z,11.89
2022-10-05T07:02:06.215Z,11.95
2022-10-05T07:04:49.515Z,12.04
2022-10-05T07:07:28.526Z,12.10
2022-10-05T07:10:15.235Z,12.18
2022-10-05T07:12:58.699Z,12.26
2022-10-05T07:15:38.663Z,12.33
2022-10-05T07:18:30.468Z,12.42
2022-10-05T07:21:03.911Z,12.51
2022-10-05T07:23:45.094Z,12.61
2022-10-05T07:26:18.334Z,12.72
2022-10-05T07:28:50.655Z,12.83
2022-10-05T07:31:26.168Z,12.95
2022-10-05T07:34:01.001Z,13.07
2022-10-05T07:36:34.295Z,13.17
2022-10-05T07:39:06.715Z,13.27
2022-10-05T07:41:41.242Z,13.33
2022-10-05T07:44:15.852Z,13.41
2022-10-05T07:46:50.058Z,13.48
2022-10-05T07:49:26.361Z,13.57
2022-10-05T07:51:56.552Z,13.65
2022-10-05T07:54:28.550Z,13.74
2022-10-05T07:57:03.884Z,13.81
2022-10-05T07:59:38.192Z,13.89
2022-10-05T08:02:14.689Z,13.97
2022-10-05T08:04:52.639Z,14.07
2022-10-05T08:07:19.460Z,14.18
2022-10-05T08:09:53.269Z,14.25
2022-10-05T08:12:28.440Z,14.32
2022-10-05T08:15:00.071Z,14.41
2022-10-05T08:17:39.073Z,14.48
2022-10-05T08:20:18.932Z,14.57
2022-10-05T08:22:50.519Z,14.64
2022-10-05T08:25:22.185Z,14.75
2022-10-05T08:27:52.898Z,14.81
2022-10-05T08:30:20.869Z,14.88
2022-10-05T08:32:52.918Z,14.95
2022-10-05T08:35:28.659Z,15.02
2022-10-05T08:37:56.715Z,15.10
2022-10-05T08:41:05.941Z,15.18
2022-10-05T08:43:51.644Z,15.27
2022-10-05T08:46:34.308Z,15.35
2022-10-05T08:49:35.158Z,15.45
2022-10-05T08:52:22.771Z,15.55
2022-10-05T08:55:16.116Z,15.63
2022-10-05T08:58:23.924Z,15.74
2022-10-05T09:00:59.532Z,15.87
2022-10-05T09:03:51.353Z,15.97
2022-10-05T09:06:52.318Z,16.07
2022-10-05T09:09:34.355Z,16.14
2022-10-05T09:12:21.467Z,16.19
2022-10-05T09:15:20.499Z,16.24
2022-10-05T09:18:07.898Z,16.27
2022-10-05T09:20:47.829Z,16.31
2022-10-05T09:23:25.889Z,16.36
2022-10-05T09:25:57.680Z,16.39
2022-10-05T09:28:29.137Z,16.43
2022-10-05T09:31:12.684Z,16.49
2022-10-05T09:34:08.533Z,16.54
2022-10-05T09:37:27.035Z,16.62
2022-10-05T09:40:26.853Z,16.73
2022-10-05T09:43:10.861Z,16.84
2022-10-05T09:45:57.286Z,16.93
2022-10-05T09:48:51.892Z,17.00
2022-10-05T09:52:04.003Z,17.05
2022-10-05T09:54:59.453Z,17.11
2022-10-05T09:57:53.342Z,17.14
2022-10-05T10:00:23.340Z,17.17
2022-10-05T10:03:41.966Z,17.28
2022-10-05T10:06:30.689Z,17.40
2022-10-05T10:09:24.505Z,17.52
2022-10-05T10:12:22.558Z,17.66
2022-10-05T10:15:35.094Z,17.81
2022-10-05T10:18:22.279Z,17.97
2022-10-05T10:21:02.045Z,18.06
2022-10-05T10:23:54.408Z,18.13
2022-10-05T10:26:54.644Z,18.18
2022-10-05T10:29:58.150Z,18.18
2022-10-05T10:33:05.827Z,18.20
2022-10-05T10:35:36.254Z,18.23
2022-10-05T10:38:29.631Z,18.24
2022-10-05T10:41:20.945Z,18.34
2022-10-05T10:44:23.854Z,18.43
2022-10-05T10:47:15.432Z,18.49
2022-10-05T10:50:05.371Z,18.58
2022-10-05T10:52:48.234Z,18.65
2022-10-05T10:55:30.075Z,18.72
2022-10-05T10:58:32.282Z,18.89
2022-10-05T11:01:11.650Z,19.08
2022-10-05T11:04:02.632Z,19.26
2022-10-05T11:07:10.790Z,19.36
2022-10-05T11:09:59.218Z,19.40
2022-10-05T11:13:02.486Z,19.45
2022-10-05T11:15:59.834Z,19.48
2022-10-05T11:18:45.422Z,19.54
2022-10-05T11:21:24.221Z,19.64
2022-10-05T11:24:33.467Z,19.67
2022-10-05T11:27:30.726Z,19.67
2022-10-05T11:30:31.886Z,19.69
2022-10-05T11:33:31.029Z,19.70
2022-10-05T11:36:33.513Z,19.72
2022-10-05T11:39:20.314Z,19.73
2022-10-05T11:42:23.963Z,19.71
2022-10-05T11:45:24.912Z,19.72
2022-10-05T11:48:19.322Z,19.78
2022-10-05T11:50:57.775Z,19.86
2022-10-05T11:53:29.423Z,19.97
2022-10-05T11:56:06.311Z,20.11
2022-10-05T11:58:41.805Z,20.26
2022-10-05T12:01:17.973Z,20.42
2022-10-05T12:03:55.019Z,20.55
2022-10-05T12:06:53.516Z,20.69
2022-10-05T12:09:38.553Z,20.85
2022-10-05T12:12:14.344Z,20.96
2022-10-05T12:14:52.519Z,21.04
2022-10-05T12:17:25.758Z,21.13
2022-10-05T12:19:58.763Z,21.16
2022-10-05T12:22:31.535Z,21.21
2022-10-05T12:25:17.789Z,21.26
2022-10-05T12:27:47.267Z,21.30
2022-10-05T12:30:18.880Z,21.35
2022-10-05T12:33:00.886Z,21.36
2022-10-05T12:35:47.838Z,21.39
2022-10-05T12:38:22.972Z,21.42
2022-10-05T12:40:56.642Z,21.45
2022-10-05T12:43:32.525Z,21.47
2022-10-05T12:46:11.754Z,21.47
2022-10-05T12:48:53.747Z,21.49
2022-10-05T12:51:29.115Z,21.51
2022-10-05T12:54:01.161Z,21.55
2022-10-05T12:56:42.131Z,21.58
2022-10-05T12:59:17.694Z,21.58
2022-10-05T13:01:53.896Z,21.62
2022-10-05T13:04:31.690Z,21.67
2022-10-05T13:07:13.526Z,21.74
2022-10-05T13:09:48.729Z,21.73
2022-10-05T13:12:23.323Z,21.77
2022-10-05T13:14:59.743Z,21.76
2022-10-05T13:17:36.930Z,21.78
2022-10-05T13:20:12.174Z,21.81
2022-10-05T13:22:43.378Z,21.85
2022-10-05T13:25:27.383Z,21.85
2022-10-05T13:28:09.131Z,21.87
2022-10-05T13:30:36.771Z,21.89
2022-10-05T13:33:10.566Z,21.90
2022-10-05T13:35:44.674Z,21.88
2022-10-05T13:38:29.545Z,21.88
2022-10-05T13:41:05.338Z,21.83
2022-10-05T13:43:40.976Z,21.76
2022-10-05T13:46:17.473Z,21.70
2022-10-05T13:48:59.254Z,21.65
2022-10-05T13:51:34.257Z,21.67
2022-10-05T13:54:05.251Z,21.66
2022-10-05T13:56:34.597Z,21.63
2022-10-05T13:59:13.727Z,21.63
2022-10-05T14:01:43.792Z,21.61
2022-10-05T14:04:17.485Z,21.59
2022-10-05T14:06:44.904Z,21.56
2022-10-05T14:09:26.152Z,21.51
2022-10-05T14:12:05.716Z,21.47
2022-10-05T14:14:42.142Z,21.44
2022-10-05T14:17:14.563Z,21.39
2022-10-05T14:19:45.600Z,21.33
2022-10-05T14:22:14.402Z,21.31
2022-10-05T14:24:50.037Z,21.27
2022-10-05T14:27:22.844Z,21.23
2022-10-05T14:29:58.059Z,21.19
2022-10-05T14:32:26.154Z,21.16
2022-10-05T14:35:03.077Z,21.14
2022-10-05T14:37:33.012Z,21.11
2022-10-05T14:40:20.440Z,21.07
2022-10-05T14:42:47.523Z,21.02
2022-10-05T14:45:18.042Z,20.97
2022-10-05T14:47:49.041Z,20.90
2022-10-05T14:50:19.713Z,20.81
2022-10-05T14:53:00.426Z,20.73
2022-10-05T14:55:46.681Z,20.66
2022-10-05T14:58:37.520Z,20.63
2022-10-05T15:01:16.434Z,20.57
2022-10-05T15:03:50.659Z,20.51
2022-10-05T15:06:24.037Z,20.48
2022-10-05T15:08:58.993Z,20.42
2022-10-05T15:11:35.994Z,20.34
2022-10-05T15:14:12.164Z,20.29
2022-10-05T15:16:39.092Z,20.24
2022-10-05T15:19:15.544Z,20.20
2022-10-05T15:22:00.017Z,20.16
2022-10-05T15:24:33.585Z,20.10
2022-10-05T15:27:03.325Z,20.06
2022-10-05T15:29:42.258Z,20.00
2022-10-05T15:32:24.629Z,19.94
2022-10-05T15:35:02.666Z,19.87
2022-10-05T15:37:40.097Z,19.79
2022-10-05T15:40:15.335Z,19.73
2022-10-05T15:42:41.738Z,19.68
2022-10-05T15:45:18.353Z,19.61
2022-10-05T15:47:51.578Z,19.53
2022-10-05T15:50:24.075Z,19.48
2022-10-05T15:52:56.479Z,19.41
2022-10-05T15:55:42.057Z,19.32
2022-10-05T15:58:24.919Z,19.24
2022-10-05T16:00:57.275Z,19.16
2022-10-05T16:03:33.426Z,19.09
2022-10-05T16:06:06.681Z,19.00
2022-10-05T16:08:50.309Z,18.89
2022-10-05T16:11:32.369Z,18.81
2022-10-05T16:14:09.865Z,18.71
2022-10-05T16:16:48.841Z,18.62
2022-10-05T16:19:21.522Z,18.51
2022-10-05T16:21:57.885Z,18.44
2022-10-05T16:24:46.756Z,18.34
2022-10-05T16:27:20.910Z,18.24
2022-10-05T16:29:55.175Z,18.17
2022-10-05T16:32:27.239Z,18.10
2022-10-05T16:35:06.869Z,18.03
2022-10-05T16:37:41.168Z,17.93
2022-10-05T16:40:17.260Z,17.85
2022-10-05T16:43:02.305Z,17.76
2022-10-05T16:45:45.639Z,17.67
2022-10-05T16:48:15.096Z,17.57
2022-10-05T16:50:57.513Z,17.50
2022-10-05T16:53:31.745Z,17.43
2022-10-05T16:56:03.877Z,17.35
2022-10-05T16:58:43.286Z,17.28
2022-10-05T17:01:22.669Z,17.17
2022-10-05T17:04:03.024Z,17.09
2022-10-05T17:06:58.310Z,17.00
2022-10-05T17:09:44.616Z,16.91
2022-10-05T17:12:33.378Z,16.84
2022-10-05T17:15:18.445Z,16.76
2022-10-05T17:18:11.088Z,16.69
2022-10-05T17:20:57.759Z,16.59
2022-10-05T17:23:38.756Z,16.52
2022-10-05T17:26:27.645Z,16.43
2022-10-05T17:29:07.804Z,16.35
2022-10-05T17:32:01.456Z,16.26
2022-10-05T17:34:29.872Z,16.19
2022-10-05T17:36:58.262Z,16.12
2022-10-05T17:39:47.489Z,16.05
2022-10-05T17:42:45.717Z,15.96
2022-10-05T17:45:50.632Z,15.87
2022-10-05T17:48:42.734Z,15.79
2022-10-05T17:51:17.441Z,15.70
2022-10-05T17:53:47.716Z,15.63
2022-10-05T17:56:14.210Z,15.57
2022-10-05T17:59:02.268Z,15.50
2022-10-05T18:01:32.377Z,15.42
2022-10-05T18:04:37.557Z,15.34
2022-10-05T18:07:14.766Z,15.28
2022-10-05T18:09:58.311Z,15.21
2022-10-05T18:12:41.691Z,15.15
2022-10-05T18:15:44.692Z,15.07
2022-10-05T18:18:47.693Z,15.01
2022-10-05T18:21:37.734Z,14.94
2022-10-05T18:24:33.133Z,14.89
2022-10-05T18:27:15.392Z,14.83
2022-10-05T18:29:56.516Z,14.78
2022-10-05T18:32:34.315Z,14.73
2022-10-05T18:35:07.721Z,14.67
2022-10-05T18:37:47.477Z,14.62
2022-10-05T18:40:26.744Z,14.58
2022-10-05T18:43:03.882Z,14.52
2022-10-05T18:45:37.636Z,14.48
2022-10-05T18:48:21.267Z,14.43
2022-10-05T18:50:55.774Z,14.37
2022-10-05T18:53:31.813Z,14.34
2022-10-05T18:56:03.674Z,14.29
2022-10-05T18:58:36.944Z,14.25
2022-10-05T19:01:24.775Z,14.21
2022-10-05T19:04:02.487Z,14.17
2022-10-05T19:06:32.864Z,14.14
2022-10-05T19:09:10.163Z,14.11
2022-10-05T19:11:43.099Z,14.06
2022-10-05T19:14:21.483Z,14.03
2022-10-05T19:17:06.664Z,14.01
2022-10-05T19:19:52.828Z,14.00
2022-10-05T19:22:32.778Z,13.99
2022-10-05T19:25:22.160Z,13.98
2022-10-05T19:27:59.977Z,13.98
2022-10-05T19:30:30.541Z,13.98
2022-10-05T19:33:13.529Z,13.98
2022-10-05T19:35:53.462Z,14.00
2022-10-05T19:38:29.111Z,14.03
2022-10-05T19:41:04.999Z,14.05
2022-10-05T19:43:43.638Z,14.07
2022-10-05T19:46:20.217Z,14.10
2022-10-05T19:48:49.543Z,14.12
2022-10-05T19:51:27.914Z,14.14
2022-10-05T19:53:56.070Z,14.14
2022-10-05T19:56:25.983Z,14.14
2022-10-05T19:58:53.572Z,14.16
2022-10-05T20:01:25.969Z,14.19
2022-10-05T20:03:53.536Z,14.20
2022-10-05T20:06:20.986Z,14.21
2022-10-05T20:08:50.006Z,14.22
2022-10-05T20:11:18.110Z,14.23
2022-10-05T20:14:07.445Z,14.26
2022-10-05T20:16:35.046Z,14.26
2022-10-05T20:19:02.094Z,14.29
2022-10-05T20:21:39.442Z,14.31
2022-10-05T20:24:07.621Z,14.31
2022-10-05T20:26:41.394Z,14.31
2022-10-05T20:29:09.827Z,14.32
2022-10-05T20:31:36.407Z,14.32
2022-10-05T20:34:02.892Z,14.32
2022-10-05T20:36:29.350Z,14.33
2022-10-05T20:38:55.829Z,14.33
2022-10-05T20:41:22.336Z,14.33
2022-10-05T20:43:48.808Z,14.34
2022-10-05T20:46:16.653Z,14.34
2022-10-05T20:48:43.433Z,14.35
2022-10-05T20:51:09.880Z,14.37
2022-10-05T20:53:36.293Z,14.37
2022-10-05T20:56:02.737Z,14.37
2022-10-05T20:58:29.699Z,14.38
2022-10-05T21:00:56.594Z,14.38
2022-10-05T21:03:24.446Z,14.37
2022-10-05T21:05:50.905Z,14.39
2022-10-05T21:08:17.314Z,14.38
2022-10-05T21:10:43.951Z,14.39
2022-10-05T21:13:10.502Z,14.41
2022-10-05T21:15:36.974Z,14.42
2022-10-05T21:18:03.513Z,14.45
2022-10-05T21:20:31.293Z,14.48
2022-10-05T21:22:57.751Z,14.50
2022-10-05T21:25:24.279Z,14.52
2022-10-05T21:27:50.742Z,14.54
2022-10-05T21:30:17.419Z,14.57
2022-10-05T21:32:44.842Z,14.59
2022-10-05T21:35:12.565Z,14.61
2022-10-05T21:37:40.381Z,14.61
2022-10-05T21:40:07.459Z,14.62
2022-10-05T21:42:34.021Z,14.62
2022-10-05T21:45:00.490Z,14.63
2022-10-05T21:47:26.969Z,14.63
2022-10-05T21:49:53.920Z,14.63
2022-10-05T21:52:20.956Z,14.62
2022-10-05T21:54:49.146Z,14.63
2022-10-05T21:57:15.859Z,14.63
2022-10-05T21:59:43.120Z,14.63
2022-10-05T22:02:09.697Z,14.63
2022-10-05T22:04:36.129Z,14.64
2022-10-05T22:07:09.779Z,14.65
2022-10-05T22:09:36.221Z,14.63
2022-10-05T22:12:04.371Z,14.62
2022-10-05T22:14:30.829Z,14.61
2022-10-05T22:16:57.301Z,14.62
2022-10-05T22:19:23.776Z,14.60
2022-10-05T22:21:50.496Z,14.60
2022-10-05T22:24:16.937Z,14.61
2022-10-05T22:26:47.733Z,14.61
2022-10-05T22:29:16.706Z,14.59
2022-10-05T22:31:44.620Z,14.56
2022-10-05T22:34:11.113Z,14.56
2022-10-05T22:36:37.648Z,14.55
2022-10-05T22:39:04.160Z,14.53
2022-10-05T22:41:30.678Z,14.51
2022-10-05T22:43:57.332Z,14.49
2022-10-05T22:46:25.156Z,14.48
2022-10-05T22:48:51.693Z,14.47
2022-10-05T22:51:18.116Z,14.46
2022-10-05T22:53:44.572Z,14.46
2022-10-05T22:56:12.886Z,14.44
2022-10-05T22:58:39.918Z,14.44
2022-10-05T23:01:08.203Z,14.41
2022-10-05T23:03:36.222Z,14.40
2022-10-05T23:06:04.513Z,14.38
2022-10-05T23:08:31.555Z,14.37
2022-10-05T23:11:01.832Z,14.37
2022-10-05T23:13:28.305Z,14.36
2022-10-05T23:15:54.786Z,14.37
2022-10-05T23:18:21.211Z,14.38
2022-10-05T23:20:54.262Z,14.41
2022-10-05T23:23:20.892Z,14.42
2022-10-05T23:25:47.304Z,14.45
2022-10-05T23:28:13.740Z,14.48
2022-10-05T23:30:40.227Z,14.52
2022-10-05T23:33:06.688Z,14.54
2022-10-05T23:35:33.129Z,14.55
2022-10-05T23:38:00.984Z,14.58
2022-10-05T23:40:27.548Z,14.61
2022-10-05T23:42:53.961Z,14.64
2022-10-05T23:45:20.386Z,14.66
2022-10-05T23:47:46.837Z,14.68
2022-10-05T23:50:13.304Z,14.70
2022-10-05T23:52:39.708Z,14.72
2022-10-05T23:55:08.280Z,14.73
2022-10-05T23:57:34.869Z,14.73
